sensor_id;sensor_type;location;lat;lon;timestamp;temperature;humidity
30889;DHT22;51092;50.874;7.024;2022-11-15T00:01:00;11.60;99.90
30889;DHT22;51092;50.874;7.024;2022-11-15T00:02:03;11.60;99.90
30889;DHT22;51092;50.874;7.024;2022-11-15T00:03:05;11.60;99.90
30889;DHT22;51092;50.874;7.024;2022-11-15T00:04:07;11.60;99.90
30889;DHT22;51092;50.874;7.024;2022-11-15T00:05:09;11.60;99.90
30889;DHT22;51092;50.874;7.024;2022-11-15T00:06:11;11.70;99.90
30889;DHT22;51092;50.874;7.024;2022-11-15T00:07:13;11.60;99.90
30889;DHT22;51092;50.874;7.024;2022-11-15T00:08:15;11.60;99.90
30889;DHT22;51092;50.874;7.024;2022-11-15T00:09:17;11.60;99.90
30889;DHT22;51092;50.874;7.024;2022-11-15T00:10:19;11.60;99.90
30889;DHT22;51092;50.874;7.024;2022-11-15T00:11:20;11.60;99.90
30889;DHT22;51092;50.874;7.024;2022-11-15T00:12:22;11.60;99.90
30889;DHT22;51092;50.874;7.024;2022-11-15T00:13:24;11.60;99.90
30889;DHT22;51092;50.874;7.024;2022-11-15T00:14:26;11.60;99.90
30889;DHT22;51092;50.874;7.024;2022-11-15T00:15:28;11.60;99.90
30889;DHT22;51092;50.874;7.024;2022-11-15T00:16:30;11.70;99.90
30889;DHT22;51092;50.874;7.024;2022-11-15T00:17:32;11.70;99.90
30889;DHT22;51092;50.874;7.024;2022-11-15T00:18:34;11.70;99.90
30889;DHT22;51092;50.874;7.024;2022-11-15T00:19:36;11.70;99.90
30889;DHT22;51092;50.874;7.024;2022-11-15T00:20:40;11.70;99.90
30889;DHT22;51092;50.874;7.024;2022-11-15T00:21:42;11.80;99.90
30889;DHT22;51092;50.874;7.024;2022-11-15T00:22:44;11.80;99.90
30889;DHT22;51092;50.874;7.024;2022-11-15T00:23:47;11.80;99.90
30889;DHT22;51092;50.874;7.024;2022-11-15T00:24:48;11.90;99.90
30889;DHT22;51092;50.874;7.024;2022-11-15T00:25:56;11.90;99.90
30889;DHT22;51092;50.874;7.024;2022-11-15T00:26:58;11.90;99.90
30889;DHT22;51092;50.874;7.024;2022-11-15T00:28:01;11.90;99.90
30889;DHT22;51092;50.874;7.024;2022-11-15T00:29:02;11.90;99.90
30889;DHT22;51092;50.874;7.024;2022-11-15T00:30:06;12.00;99.90
30889;DHT22;51092;50.874;7.024;2022-11-15T00:31:10;11.90;99.90
30889;DHT22;51092;50.874;7.024;2022-11-15T00:32:13;11.90;99.90
30889;DHT22;51092;50.874;7.024;2022-11-15T00:33:15;12.00;99.90
30889;DHT22;51092;50.874;7.024;2022-11-15T00:34:19;12.00;99.90
30889;DHT22;51092;50.874;7.024;2022-11-15T00:35:21;12.10;99.90
30889;DHT22;51092;50.874;7.024;2022-11-15T00:36:25;12.10;99.90
30889;DHT22;51092;50.874;7.024;2022-11-15T00:37:26;12.10;99.90
30889;DHT22;51092;50.874;7.024;2022-11-15T00:38:31;12.00;99.90
30889;DHT22;51092;50.874;7.024;2022-11-15T00:39:33;12.00;99.90
30889;DHT22;51092;50.874;7.024;2022-11-15T00:40:36;12.00;99.90
30889;DHT22;51092;50.874;7.024;2022-11-15T00:41:38;12.00;99.90
30889;DHT22;51092;50.874;7.024;2022-11-15T00:42:41;12.00;99.90
30889;DHT22;51092;50.874;7.024;2022-11-15T00:43:42;12.00;99.90
30889;DHT22;51092;50.874;7.024;2022-11-15T00:44:45;12.00;99.90
30889;DHT22;51092;50.874;7.024;2022-11-15T00:45:47;12.10;99.90
30889;DHT22;51092;50.874;7.024;2022-11-15T00:46:49;12.10;99.90
30889;DHT22;51092;50.874;7.024;2022-11-15T00:47:53;12.10;99.90
30889;DHT22;51092;50.874;7.024;2022-11-15T00:48:56;12.10;99.90
30889;DHT22;51092;50.874;7.024;2022-11-15T00:49:57;12.20;99.90
30889;DHT22;51092;50.874;7.024;2022-11-15T00:50:59;12.20;99.90
30889;DHT22;51092;50.874;7.024;2022-11-15T00:52:01;12.20;99.90
30889;DHT22;51092;50.874;7.024;2022-11-15T00:53:04;12.30;99.90
30889;DHT22;51092;50.874;7.024;2022-11-15T00:54:05;12.30;99.90
30889;DHT22;51092;50.874;7.024;2022-11-15T00:55:09;12.30;99.90
30889;DHT22;51092;50.874;7.024;2022-11-15T00:56:14;12.30;99.90
30889;DHT22;51092;50.874;7.024;2022-11-15T00:57:17;12.20;99.90
30889;DHT22;51092;50.874;7.024;2022-11-15T00:58:18;12.20;99.90
30889;DHT22;51092;50.874;7.024;2022-11-15T00:59:21;12.20;99.90
30889;DHT22;51092;50.874;7.024;2022-11-15T01:00:22;12.20;99.90
30889;DHT22;51092;50.874;7.024;2022-11-15T01:01:24;12.20;99.90
30889;DHT22;51092;50.874;7.024;2022-11-15T01:02:25;12.10;99.90
30889;DHT22;51092;50.874;7.024;2022-11-15T01:03:29;12.10;99.90
30889;DHT22;51092;50.874;7.024;2022-11-15T01:04:32;12.20;99.90
30889;DHT22;51092;50.874;7.024;2022-11-15T01:05:37;12.10;99.90
30889;DHT22;51092;50.874;7.024;2022-11-15T01:06:39;12.10;99.90
30889;DHT22;51092;50.874;7.024;2022-11-15T01:07:43;12.20;99.90
30889;DHT22;51092;50.874;7.024;2022-11-15T01:08:44;12.20;99.90
30889;DHT22;51092;50.874;7.024;2022-11-15T01:09:47;12.30;99.90
30889;DHT22;51092;50.874;7.024;2022-11-15T01:10:48;12.30;99.90
30889;DHT22;51092;50.874;7.024;2022-11-15T01:11:52;12.20;99.90
30889;DHT22;51092;50.874;7.024;2022-11-15T01:12:53;12.20;99.90
30889;DHT22;51092;50.874;7.024;2022-11-15T01:13:56;12.20;99.90
30889;DHT22;51092;50.874;7.024;2022-11-15T01:14:57;12.20;99.90
30889;DHT22;51092;50.874;7.024;2022-11-15T01:16:06;12.30;99.90
30889;DHT22;51092;50.874;7.024;2022-11-15T01:17:07;12.20;99.90
30889;DHT22;51092;50.874;7.024;2022-11-15T01:18:10;12.30;99.90
30889;DHT22;51092;50.874;7.024;2022-11-15T01:19:11;12.30;99.90
30889;DHT22;51092;50.874;7.024;2022-11-15T01:20:14;12.40;99.90
30889;DHT22;51092;50.874;7.024;2022-11-15T01:21:18;12.30;99.90
30889;DHT22;51092;50.874;7.024;2022-11-15T01:22:21;12.30;99.90
30889;DHT22;51092;50.874;7.024;2022-11-15T01:23:24;12.30;99.90
30889;DHT22;51092;50.874;7.024;2022-11-15T01:24:27;12.40;99.90
30889;DHT22;51092;50.874;7.024;2022-11-15T01:25:28;12.40;99.90
30889;DHT22;51092;50.874;7.024;2022-11-15T01:26:31;12.40;99.90
30889;DHT22;51092;50.874;7.024;2022-11-15T01:27:33;12.40;99.90
30889;DHT22;51092;50.874;7.024;2022-11-15T01:28:37;12.50;99.90
30889;DHT22;51092;50.874;7.024;2022-11-15T01:29:40;12.50;99.90
30889;DHT22;51092;50.874;7.024;2022-11-15T01:30:41;12.50;99.90
30889;DHT22;51092;50.874;7.024;2022-11-15T01:31:44;12.50;99.90
30889;DHT22;51092;50.874;7.024;2022-11-15T01:32:45;12.60;99.90
30889;DHT22;51092;50.874;7.024;2022-11-15T01:33:48;12.60;99.90
30889;DHT22;51092;50.874;7.024;2022-11-15T01:34:50;12.60;99.90
30889;DHT22;51092;50.874;7.024;2022-11-15T01:35:53;12.60;99.90
30889;DHT22;51092;50.874;7.024;2022-11-15T01:36:55;12.70;99.90
30889;DHT22;51092;50.874;7.024;2022-11-15T01:37:57;12.70;99.90
30889;DHT22;51092;50.874;7.024;2022-11-15T01:39:00;12.70;99.90
30889;DHT22;51092;50.874;7.024;2022-11-15T01:40:03;12.60;99.90
30889;DHT22;51092;50.874;7.024;2022-11-15T01:41:05;12.60;99.90
30889;DHT22;51092;50.874;7.024;2022-11-15T01:42:10;12.60;99.90
30889;DHT22;51092;50.874;7.024;2022-11-15T01:43:21;12.70;99.90
30889;DHT22;51092;50.874;7.024;2022-11-15T01:44:41;12.70;99.90
30889;DHT22;51092;50.874;7.024;2022-11-15T01:45:45;12.70;99.90
30889;DHT22;51092;50.874;7.024;2022-11-15T01:46:51;12.80;99.90
30889;DHT22;51092;50.874;7.024;2022-11-15T01:47:54;12.80;99.90
30889;DHT22;51092;50.874;7.024;2022-11-15T01:48:59;12.70;99.90
30889;DHT22;51092;50.874;7.024;2022-11-15T01:50:06;12.70;99.90
30889;DHT22;51092;50.874;7.024;2022-11-15T01:51:11;12.70;99.90
30889;DHT22;51092;50.874;7.024;2022-11-15T01:52:19;12.70;99.90
30889;DHT22;51092;50.874;7.024;2022-11-15T01:53:23;12.60;99.90
30889;DHT22;51092;50.874;7.024;2022-11-15T01:54:28;12.70;99.90
30889;DHT22;51092;50.874;7.024;2022-11-15T01:55:30;12.70;99.90
30889;DHT22;51092;50.874;7.024;2022-11-15T01:56:36;12.70;99.90
30889;DHT22;51092;50.874;7.024;2022-11-15T01:57:37;12.70;99.90
30889;DHT22;51092;50.874;7.024;2022-11-15T01:58:41;12.70;99.90
30889;DHT22;51092;50.874;7.024;2022-11-15T01:59:44;12.70;99.90
30889;DHT22;51092;50.874;7.024;2022-11-15T02:00:49;12.60;99.90
30889;DHT22;51092;50.874;7.024;2022-11-15T02:01:51;12.70;99.90
30889;DHT22;51092;50.874;7.024;2022-11-15T02:02:54;12.70;99.90
30889;DHT22;51092;50.874;7.024;2022-11-15T02:03:59;12.70;99.90
30889;DHT22;51092;50.874;7.024;2022-11-15T02:05:02;12.70;99.90
30889;DHT22;51092;50.874;7.024;2022-11-15T02:06:05;12.60;99.90
30889;DHT22;51092;50.874;7.024;2022-11-15T02:07:10;12.70;99.90
30889;DHT22;51092;50.874;7.024;2022-11-15T02:08:12;12.60;99.90
30889;DHT22;51092;50.874;7.024;2022-11-15T02:09:21;12.70;99.90
30889;DHT22;51092;50.874;7.024;2022-11-15T02:10:24;12.70;99.90
30889;DHT22;51092;50.874;7.024;2022-11-15T02:11:28;12.70;99.90
30889;DHT22;51092;50.874;7.024;2022-11-15T02:12:29;12.80;99.90
30889;DHT22;51092;50.874;7.024;2022-11-15T02:13:32;12.80;99.90
30889;DHT22;51092;50.874;7.024;2022-11-15T02:14:34;12.80;99.90
30889;DHT22;51092;50.874;7.024;2022-11-15T02:15:43;12.90;99.90
30889;DHT22;51092;50.874;7.024;2022-11-15T02:16:54;12.80;99.90
30889;DHT22;51092;50.874;7.024;2022-11-15T02:18:11;12.80;99.90
30889;DHT22;51092;50.874;7.024;2022-11-15T02:19:29;12.70;99.90
30889;DHT22;51092;50.874;7.024;2022-11-15T02:20:46;12.70;99.90
30889;DHT22;51092;50.874;7.024;2022-11-15T02:22:03;12.70;99.90
30889;DHT22;51092;50.874;7.024;2022-11-15T02:23:27;12.70;99.90
30889;DHT22;51092;50.874;7.024;2022-11-15T02:25:01;12.70;99.90
30889;DHT22;51092;50.874;7.024;2022-11-15T02:26:30;12.70;99.90
30889;DHT22;51092;50.874;7.024;2022-11-15T02:28:03;12.60;99.90
30889;DHT22;51092;50.874;7.024;2022-11-15T02:29:10;12.70;99.90
30889;DHT22;51092;50.874;7.024;2022-11-15T02:30:27;12.70;99.90
30889;DHT22;51092;50.874;7.024;2022-11-15T02:31:36;12.80;99.90
30889;DHT22;51092;50.874;7.024;2022-11-15T02:32:44;12.80;99.90
30889;DHT22;51092;50.874;7.024;2022-11-15T02:33:54;12.80;99.90
30889;DHT22;51092;50.874;7.024;2022-11-15T02:35:05;12.70;99.90
30889;DHT22;51092;50.874;7.024;2022-11-15T02:36:15;12.70;99.90
30889;DHT22;51092;50.874;7.024;2022-11-15T02:37:26;12.70;99.90
30889;DHT22;51092;50.874;7.024;2022-11-15T02:38:37;12.80;99.90
30889;DHT22;51092;50.874;7.024;2022-11-15T02:39:44;12.80;99.90
30889;DHT22;51092;50.874;7.024;2022-11-15T02:40:56;12.80;99.90
30889;DHT22;51092;50.874;7.024;2022-11-15T02:42:02;12.80;99.90
30889;DHT22;51092;50.874;7.024;2022-11-15T02:43:08;12.70;99.90
30889;DHT22;51092;50.874;7.024;2022-11-15T02:44:32;12.60;99.90
30889;DHT22;51092;50.874;7.024;2022-11-15T02:45:40;12.60;99.90
30889;DHT22;51092;50.874;7.024;2022-11-15T02:46:48;12.60;99.90
30889;DHT22;51092;50.874;7.024;2022-11-15T02:48:10;12.50;99.90
30889;DHT22;51092;50.874;7.024;2022-11-15T02:49:14;12.60;99.90
30889;DHT22;51092;50.874;7.024;2022-11-15T02:50:18;12.60;99.90
30889;DHT22;51092;50.874;7.024;2022-11-15T02:51:21;12.70;99.90
30889;DHT22;51092;50.874;7.024;2022-11-15T02:52:24;12.70;99.90
30889;DHT22;51092;50.874;7.024;2022-11-15T02:53:28;12.70;99.90
30889;DHT22;51092;50.874;7.024;2022-11-15T02:54:31;12.70;99.90
30889;DHT22;51092;50.874;7.024;2022-11-15T02:55:36;12.70;99.90
30889;DHT22;51092;50.874;7.024;2022-11-15T02:56:38;12.70;99.90
30889;DHT22;51092;50.874;7.024;2022-11-15T02:57:48;12.70;99.90
30889;DHT22;51092;50.874;7.024;2022-11-15T02:59:13;12.70;99.90
30889;DHT22;51092;50.874;7.024;2022-11-15T03:00:21;12.70;99.90
30889;DHT22;51092;50.874;7.024;2022-11-15T03:01:35;12.80;99.90
30889;DHT22;51092;50.874;7.024;2022-11-15T03:02:56;12.80;99.90
30889;DHT22;51092;50.874;7.024;2022-11-15T03:04:02;12.80;99.90
30889;DHT22;51092;50.874;7.024;2022-11-15T03:05:15;12.80;99.90
30889;DHT22;51092;50.874;7.024;2022-11-15T03:06:26;12.80;99.90
30889;DHT22;51092;50.874;7.024;2022-11-15T03:07:35;12.70;99.90
30889;DHT22;51092;50.874;7.024;2022-11-15T03:08:49;12.80;99.90
30889;DHT22;51092;50.874;7.024;2022-11-15T03:09:56;12.90;99.90
30889;DHT22;51092;50.874;7.024;2022-11-15T03:11:06;12.90;99.90
30889;DHT22;51092;50.874;7.024;2022-11-15T03:12:14;12.90;99.90
30889;DHT22;51092;50.874;7.024;2022-11-15T03:13:24;12.90;99.90
30889;DHT22;51092;50.874;7.024;2022-11-15T03:14:30;13.00;99.90
30889;DHT22;51092;50.874;7.024;2022-11-15T03:15:38;12.90;99.90
30889;DHT22;51092;50.874;7.024;2022-11-15T03:16:47;12.90;99.90
30889;DHT22;51092;50.874;7.024;2022-11-15T03:17:55;12.90;99.90
30889;DHT22;51092;50.874;7.024;2022-11-15T03:19:02;12.90;99.90
30889;DHT22;51092;50.874;7.024;2022-11-15T03:20:06;12.90;99.90
30889;DHT22;51092;50.874;7.024;2022-11-15T03:21:11;12.90;99.90
30889;DHT22;51092;50.874;7.024;2022-11-15T03:22:17;12.90;99.90
30889;DHT22;51092;50.874;7.024;2022-11-15T03:23:20;12.80;99.90
30889;DHT22;51092;50.874;7.024;2022-11-15T03:24:25;12.80;99.90
30889;DHT22;51092;50.874;7.024;2022-11-15T03:25:29;12.80;99.90
30889;DHT22;51092;50.874;7.024;2022-11-15T03:26:34;12.70;99.90
30889;DHT22;51092;50.874;7.024;2022-11-15T03:27:39;12.80;99.90
30889;DHT22;51092;50.874;7.024;2022-11-15T03:28:47;12.70;99.90
30889;DHT22;51092;50.874;7.024;2022-11-15T03:29:54;12.70;99.90
30889;DHT22;51092;50.874;7.024;2022-11-15T03:30:59;12.70;99.90
30889;DHT22;51092;50.874;7.024;2022-11-15T03:32:08;12.80;99.90
30889;DHT22;51092;50.874;7.024;2022-11-15T03:33:12;12.70;99.90
30889;DHT22;51092;50.874;7.024;2022-11-15T03:34:19;12.70;99.90
30889;DHT22;51092;50.874;7.024;2022-11-15T03:35:25;12.70;99.90
30889;DHT22;51092;50.874;7.024;2022-11-15T03:36:30;12.70;99.90
30889;DHT22;51092;50.874;7.024;2022-11-15T03:37:36;12.80;99.90
30889;DHT22;51092;50.874;7.024;2022-11-15T03:38:40;12.80;99.90
30889;DHT22;51092;50.874;7.024;2022-11-15T03:39:43;12.80;99.90
30889;DHT22;51092;50.874;7.024;2022-11-15T03:40:51;12.80;99.90
30889;DHT22;51092;50.874;7.024;2022-11-15T03:42:01;12.80;99.90
30889;DHT22;51092;50.874;7.024;2022-11-15T03:43:12;12.80;99.90
30889;DHT22;51092;50.874;7.024;2022-11-15T03:44:23;12.80;99.90
30889;DHT22;51092;50.874;7.024;2022-11-15T03:45:32;12.70;99.90
30889;DHT22;51092;50.874;7.024;2022-11-15T03:46:42;12.70;99.90
30889;DHT22;51092;50.874;7.024;2022-11-15T03:47:53;12.70;99.90
30889;DHT22;51092;50.874;7.024;2022-11-15T03:49:00;12.80;99.90
30889;DHT22;51092;50.874;7.024;2022-11-15T03:50:07;12.90;99.90
30889;DHT22;51092;50.874;7.024;2022-11-15T03:51:11;12.90;99.90
30889;DHT22;51092;50.874;7.024;2022-11-15T03:52:17;12.80;99.90
30889;DHT22;51092;50.874;7.024;2022-11-15T03:53:20;12.80;99.90
30889;DHT22;51092;50.874;7.024;2022-11-15T03:54:21;12.80;99.90
30889;DHT22;51092;50.874;7.024;2022-11-15T03:55:24;12.90;99.90
30889;DHT22;51092;50.874;7.024;2022-11-15T03:56:25;12.90;99.90
30889;DHT22;51092;50.874;7.024;2022-11-15T03:57:28;13.00;99.90
30889;DHT22;51092;50.874;7.024;2022-11-15T03:58:32;13.00;99.90
30889;DHT22;51092;50.874;7.024;2022-11-15T03:59:34;12.90;99.90
30889;DHT22;51092;50.874;7.024;2022-11-15T04:00:36;12.90;99.90
30889;DHT22;51092;50.874;7.024;2022-11-15T04:01:38;13.00;99.90
30889;DHT22;51092;50.874;7.024;2022-11-15T04:02:41;13.00;99.90
30889;DHT22;51092;50.874;7.024;2022-11-15T04:03:44;13.00;99.90
30889;DHT22;51092;50.874;7.024;2022-11-15T04:04:46;12.90;99.90
30889;DHT22;51092;50.874;7.024;2022-11-15T04:05:48;12.90;99.90
30889;DHT22;51092;50.874;7.024;2022-11-15T04:06:50;12.80;99.90
30889;DHT22;51092;50.874;7.024;2022-11-15T04:07:53;12.90;99.90
30889;DHT22;51092;50.874;7.024;2022-11-15T04:08:54;12.90;99.90
30889;DHT22;51092;50.874;7.024;2022-11-15T04:09:57;12.90;99.90
30889;DHT22;51092;50.874;7.024;2022-11-15T04:11:04;12.90;99.90
30889;DHT22;51092;50.874;7.024;2022-11-15T04:12:07;12.80;99.90
30889;DHT22;51092;50.874;7.024;2022-11-15T04:13:08;12.80;99.90
30889;DHT22;51092;50.874;7.024;2022-11-15T04:14:11;12.80;99.90
30889;DHT22;51092;50.874;7.024;2022-11-15T04:15:14;12.80;99.90
30889;DHT22;51092;50.874;7.024;2022-11-15T04:16:17;12.80;99.90
30889;DHT22;51092;50.874;7.024;2022-11-15T04:17:18;12.80;99.90
30889;DHT22;51092;50.874;7.024;2022-11-15T04:18:21;12.90;99.90
30889;DHT22;51092;50.874;7.024;2022-11-15T04:19:24;12.90;99.90
30889;DHT22;51092;50.874;7.024;2022-11-15T04:20:59;12.90;99.90
30889;DHT22;51092;50.874;7.024;2022-11-15T04:22:19;12.80;99.90
30889;DHT22;51092;50.874;7.024;2022-11-15T04:23:51;12.90;99.90
30889;DHT22;51092;50.874;7.024;2022-11-15T04:25:11;12.90;99.90
30889;DHT22;51092;50.874;7.024;2022-11-15T04:26:15;13.00;99.90
30889;DHT22;51092;50.874;7.024;2022-11-15T04:27:17;12.90;99.90
30889;DHT22;51092;50.874;7.024;2022-11-15T04:28:20;12.90;99.90
30889;DHT22;51092;50.874;7.024;2022-11-15T04:29:22;12.90;99.90
30889;DHT22;51092;50.874;7.024;2022-11-15T04:30:37;12.90;99.90
30889;DHT22;51092;50.874;7.024;2022-11-15T04:31:39;12.90;99.90
30889;DHT22;51092;50.874;7.024;2022-11-15T04:32:41;12.90;99.90
30889;DHT22;51092;50.874;7.024;2022-11-15T04:33:43;12.90;99.90
30889;DHT22;51092;50.874;7.024;2022-11-15T04:34:48;12.90;99.90
30889;DHT22;51092;50.874;7.024;2022-11-15T04:35:49;12.90;99.90
30889;DHT22;51092;50.874;7.024;2022-11-15T04:37:06;12.90;99.90
30889;DHT22;51092;50.874;7.024;2022-11-15T04:38:14;12.90;99.90
30889;DHT22;51092;50.874;7.024;2022-11-15T04:39:15;12.90;99.90
30889;DHT22;51092;50.874;7.024;2022-11-15T04:40:18;12.90;99.90
30889;DHT22;51092;50.874;7.024;2022-11-15T04:41:20;12.80;99.90
30889;DHT22;51092;50.874;7.024;2022-11-15T04:42:22;12.80;99.90
30889;DHT22;51092;50.874;7.024;2022-11-15T04:43:25;12.90;99.90
30889;DHT22;51092;50.874;7.024;2022-11-15T04:44:27;12.90;99.90
30889;DHT22;51092;50.874;7.024;2022-11-15T04:45:29;12.90;99.90
30889;DHT22;51092;50.874;7.024;2022-11-15T04:46:31;12.90;99.90
30889;DHT22;51092;50.874;7.024;2022-11-15T04:47:34;12.90;99.90
30889;DHT22;51092;50.874;7.024;2022-11-15T04:48:35;12.90;99.90
30889;DHT22;51092;50.874;7.024;2022-11-15T04:49:38;12.80;99.90
30889;DHT22;51092;50.874;7.024;2022-11-15T04:50:41;12.80;99.90
30889;DHT22;51092;50.874;7.024;2022-11-15T04:51:44;12.80;99.90
30889;DHT22;51092;50.874;7.024;2022-11-15T04:52:51;12.70;99.90
30889;DHT22;51092;50.874;7.024;2022-11-15T04:53:54;12.70;99.90
30889;DHT22;51092;50.874;7.024;2022-11-15T04:54:55;12.70;99.90
30889;DHT22;51092;50.874;7.024;2022-11-15T04:55:58;12.70;99.90
30889;DHT22;51092;50.874;7.024;2022-11-15T04:56:59;12.60;99.90
30889;DHT22;51092;50.874;7.024;2022-11-15T04:58:02;12.50;99.90
30889;DHT22;51092;50.874;7.024;2022-11-15T04:59:04;12.60;99.90
30889;DHT22;51092;50.874;7.024;2022-11-15T05:00:09;12.50;99.90
30889;DHT22;51092;50.874;7.024;2022-11-15T05:01:12;12.50;99.90
30889;DHT22;51092;50.874;7.024;2022-11-15T05:02:16;12.50;99.90
30889;DHT22;51092;50.874;7.024;2022-11-15T05:03:17;12.40;99.90
30889;DHT22;51092;50.874;7.024;2022-11-15T05:04:38;12.40;99.90
30889;DHT22;51092;50.874;7.024;2022-11-15T05:05:42;12.40;99.90
30889;DHT22;51092;50.874;7.024;2022-11-15T05:06:44;12.40;99.90
30889;DHT22;51092;50.874;7.024;2022-11-15T05:07:47;12.40;99.90
30889;DHT22;51092;50.874;7.024;2022-11-15T05:08:48;12.50;99.90
30889;DHT22;51092;50.874;7.024;2022-11-15T05:09:50;12.50;99.90
30889;DHT22;51092;50.874;7.024;2022-11-15T05:10:51;12.50;99.90
30889;DHT22;51092;50.874;7.024;2022-11-15T05:11:53;12.50;99.90
30889;DHT22;51092;50.874;7.024;2022-11-15T05:12:55;12.40;99.90
30889;DHT22;51092;50.874;7.024;2022-11-15T05:13:58;12.40;99.90
30889;DHT22;51092;50.874;7.024;2022-11-15T05:14:59;12.50;99.90
30889;DHT22;51092;50.874;7.024;2022-11-15T05:16:02;12.50;99.90
30889;DHT22;51092;50.874;7.024;2022-11-15T05:17:03;12.40;99.90
30889;DHT22;51092;50.874;7.024;2022-11-15T05:18:09;12.50;99.90
30889;DHT22;51092;50.874;7.024;2022-11-15T05:19:11;12.50;99.90
30889;DHT22;51092;50.874;7.024;2022-11-15T05:20:14;12.40;99.90
30889;DHT22;51092;50.874;7.024;2022-11-15T05:21:17;12.50;99.90
30889;DHT22;51092;50.874;7.024;2022-11-15T05:22:20;12.50;99.90
30889;DHT22;51092;50.874;7.024;2022-11-15T05:23:21;12.50;99.90
30889;DHT22;51092;50.874;7.024;2022-11-15T05:24:24;12.40;99.90
30889;DHT22;51092;50.874;7.024;2022-11-15T05:25:25;12.50;99.90
30889;DHT22;51092;50.874;7.024;2022-11-15T05:26:28;12.50;99.90
30889;DHT22;51092;50.874;7.024;2022-11-15T05:27:30;12.50;99.90
30889;DHT22;51092;50.874;7.024;2022-11-15T05:28:33;12.50;99.90
30889;DHT22;51092;50.874;7.024;2022-11-15T05:29:35;12.50;99.90
30889;DHT22;51092;50.874;7.024;2022-11-15T05:30:37;12.50;99.90
30889;DHT22;51092;50.874;7.024;2022-11-15T05:31:39;12.40;99.90
30889;DHT22;51092;50.874;7.024;2022-11-15T05:32:42;12.40;99.90
30889;DHT22;51092;50.874;7.024;2022-11-15T05:33:44;12.40;99.90
30889;DHT22;51092;50.874;7.024;2022-11-15T05:34:47;12.40;99.90
30889;DHT22;51092;50.874;7.024;2022-11-15T05:35:51;12.40;99.90
30889;DHT22;51092;50.874;7.024;2022-11-15T05:36:59;12.40;99.90
30889;DHT22;51092;50.874;7.024;2022-11-15T05:38:00;12.50;99.90
30889;DHT22;51092;50.874;7.024;2022-11-15T05:39:04;12.40;99.90
30889;DHT22;51092;50.874;7.024;2022-11-15T05:40:07;12.40;99.90
30889;DHT22;51092;50.874;7.024;2022-11-15T05:41:10;12.40;99.90
30889;DHT22;51092;50.874;7.024;2022-11-15T05:42:14;12.30;99.90
30889;DHT22;51092;50.874;7.024;2022-11-15T05:43:17;12.30;99.90
30889;DHT22;51092;50.874;7.024;2022-11-15T05:44:21;12.20;99.90
30889;DHT22;51092;50.874;7.024;2022-11-15T05:45:24;12.20;99.90
30889;DHT22;51092;50.874;7.024;2022-11-15T05:46:26;12.20;99.90
30889;DHT22;51092;50.874;7.024;2022-11-15T05:47:29;12.20;99.90
30889;DHT22;51092;50.874;7.024;2022-11-15T05:48:31;12.10;99.90
30889;DHT22;51092;50.874;7.024;2022-11-15T05:49:35;12.10;99.90
30889;DHT22;51092;50.874;7.024;2022-11-15T05:50:38;12.10;99.90
30889;DHT22;51092;50.874;7.024;2022-11-15T05:51:43;12.10;99.90
30889;DHT22;51092;50.874;7.024;2022-11-15T05:52:47;12.10;99.90
30889;DHT22;51092;50.874;7.024;2022-11-15T05:53:51;12.10;99.90
30889;DHT22;51092;50.874;7.024;2022-11-15T05:54:53;12.10;99.90
30889;DHT22;51092;50.874;7.024;2022-11-15T05:55:58;12.20;99.90
30889;DHT22;51092;50.874;7.024;2022-11-15T05:57:00;12.20;99.90
30889;DHT22;51092;50.874;7.024;2022-11-15T05:58:03;12.20;99.90
30889;DHT22;51092;50.874;7.024;2022-11-15T05:59:05;12.20;99.90
30889;DHT22;51092;50.874;7.024;2022-11-15T06:00:09;12.20;99.90
30889;DHT22;51092;50.874;7.024;2022-11-15T06:01:11;12.20;99.90
30889;DHT22;51092;50.874;7.024;2022-11-15T06:02:13;12.20;99.90
30889;DHT22;51092;50.874;7.024;2022-11-15T06:03:15;12.10;99.90
30889;DHT22;51092;50.874;7.024;2022-11-15T06:04:17;12.10;99.90
30889;DHT22;51092;50.874;7.024;2022-11-15T06:05:19;12.10;99.90
30889;DHT22;51092;50.874;7.024;2022-11-15T06:06:21;12.00;99.90
30889;DHT22;51092;50.874;7.024;2022-11-15T06:07:23;12.00;99.90
30889;DHT22;51092;50.874;7.024;2022-11-15T06:08:27;12.00;99.90
30889;DHT22;51092;50.874;7.024;2022-11-15T06:09:29;11.90;99.90
30889;DHT22;51092;50.874;7.024;2022-11-15T06:10:32;11.90;99.90
30889;DHT22;51092;50.874;7.024;2022-11-15T06:11:34;11.90;99.90
30889;DHT22;51092;50.874;7.024;2022-11-15T06:12:37;11.90;99.90
30889;DHT22;51092;50.874;7.024;2022-11-15T06:13:39;11.90;99.90
30889;DHT22;51092;50.874;7.024;2022-11-15T06:14:41;11.90;99.90
30889;DHT22;51092;50.874;7.024;2022-11-15T06:15:44;11.90;99.90
30889;DHT22;51092;50.874;7.024;2022-11-15T06:16:46;11.80;99.90
30889;DHT22;51092;50.874;7.024;2022-11-15T06:17:48;11.80;99.90
30889;DHT22;51092;50.874;7.024;2022-11-15T06:18:50;11.80;99.90
30889;DHT22;51092;50.874;7.024;2022-11-15T06:19:53;11.80;99.90
30889;DHT22;51092;50.874;7.024;2022-11-15T06:20:58;11.80;99.90
30889;DHT22;51092;50.874;7.024;2022-11-15T06:22:01;11.70;99.90
30889;DHT22;51092;50.874;7.024;2022-11-15T06:23:04;11.70;99.90
30889;DHT22;51092;50.874;7.024;2022-11-15T06:24:08;11.70;99.90
30889;DHT22;51092;50.874;7.024;2022-11-15T06:25:11;11.80;99.90
30889;DHT22;51092;50.874;7.024;2022-11-15T06:26:12;11.70;99.90
30889;DHT22;51092;50.874;7.024;2022-11-15T06:27:15;11.70;99.90
30889;DHT22;51092;50.874;7.024;2022-11-15T06:28:16;11.70;99.90
30889;DHT22;51092;50.874;7.024;2022-11-15T06:29:19;11.60;99.90
30889;DHT22;51092;50.874;7.024;2022-11-15T06:30:20;11.60;99.90
30889;DHT22;51092;50.874;7.024;2022-11-15T06:31:23;11.60;99.90
30889;DHT22;51092;50.874;7.024;2022-11-15T06:32:25;11.60;99.90
30889;DHT22;51092;50.874;7.024;2022-11-15T06:33:27;11.60;99.90
30889;DHT22;51092;50.874;7.024;2022-11-15T06:34:30;11.60;99.90
30889;DHT22;51092;50.874;7.024;2022-11-15T06:35:33;11.60;99.90
30889;DHT22;51092;50.874;7.024;2022-11-15T06:36:36;11.60;99.90
30889;DHT22;51092;50.874;7.024;2022-11-15T06:37:39;11.60;99.90
30889;DHT22;51092;50.874;7.024;2022-11-15T06:38:41;11.60;99.90
30889;DHT22;51092;50.874;7.024;2022-11-15T06:39:45;11.50;99.90
30889;DHT22;51092;50.874;7.024;2022-11-15T06:40:46;11.50;99.90
30889;DHT22;51092;50.874;7.024;2022-11-15T06:41:49;11.50;99.90
30889;DHT22;51092;50.874;7.024;2022-11-15T06:42:51;11.40;99.90
30889;DHT22;51092;50.874;7.024;2022-11-15T06:43:59;11.40;99.90
30889;DHT22;51092;50.874;7.024;2022-11-15T06:45:02;11.50;99.90
30889;DHT22;51092;50.874;7.024;2022-11-15T06:46:05;11.50;99.90
30889;DHT22;51092;50.874;7.024;2022-11-15T06:47:08;11.40;99.90
30889;DHT22;51092;50.874;7.024;2022-11-15T06:48:10;11.40;99.90
30889;DHT22;51092;50.874;7.024;2022-11-15T06:49:12;11.40;99.90